sensor_id;sensor_type;location;lat;lon;timestamp;pressure;altitude;pressure_sealevel;temperature;humidity
19526;BME280;9907;42.676;26.348;2022-08-19T00:00:29;98376.63;;;26.58;63.97
19526;BME280;9907;42.676;26.348;2022-08-19T00:02:55;98384.28;;;26.56;63.64
19526;BME280;9907;42.676;26.348;2022-08-19T00:05:21;98367.25;;;26.54;63.57
19526;BME280;9907;42.676;26.348;2022-08-19T00:07:47;98371.91;;;26.53;63.57
19526;BME280;9907;42.676;26.348;2022-08-19T00:10:15;98374.91;;;26.52;63.56
19526;BME280;9907;42.676;26.348;2022-08-19T00:12:40;98382.81;;;26.48;63.39
19526;BME280;9907;42.676;26.348;2022-08-19T00:15:09;98390.19;;;26.48;63.31
19526;BME280;9907;42.676;26.348;2022-08-19T00:17:40;98373.22;;;26.46;63.41
19526;BME280;9907;42.676;26.348;2022-08-19T00:20:09;98376.44;;;26.43;63.72
19526;BME280;9907;42.676;26.348;2022-08-19T00:22:36;98376.44;;;26.43;63.96
19526;BME280;9907;42.676;26.348;2022-08-19T00:25:02;98378.09;;;26.44;63.62
19526;BME280;9907;42.676;26.348;2022-08-19T00:27:28;98368.22;;;26.43;63.47
19526;BME280;9907;42.676;26.348;2022-08-19T00:29:54;98372.31;;;26.40;62.99
19526;BME280;9907;42.676;26.348;2022-08-19T00:32:19;98375.28;;;26.39;63.10
19526;BME280;9907;42.676;26.348;2022-08-19T00:34:46;98372.00;;;26.37;63.06
19526;BME280;9907;42.676;26.348;2022-08-19T00:37:11;98370.31;;;26.36;63.05
19526;BME280;9907;42.676;26.348;2022-08-19T00:39:37;98371.66;;;26.33;63.52
19526;BME280;9907;42.676;26.348;2022-08-19T00:42:02;98363.69;;;26.32;63.36
19526;BME280;9907;42.676;26.348;2022-08-19T00:44:29;98367.53;;;26.31;63.43
19526;BME280;9907;42.676;26.348;2022-08-19T00:46:57;98367.78;;;26.29;63.72
19526;BME280;9907;42.676;26.348;2022-08-19T00:49:25;98367.72;;;26.24;63.79
19526;BME280;9907;42.676;26.348;2022-08-19T00:52:07;98359.66;;;26.17;63.99
19526;BME280;9907;42.676;26.348;2022-08-19T00:54:36;98367.03;;;26.17;64.31
19526;BME280;9907;42.676;26.348;2022-08-19T00:57:05;98369.56;;;26.19;63.95
19526;BME280;9907;42.676;26.348;2022-08-19T00:59:34;98370.88;;;26.16;64.40
19526;BME280;9907;42.676;26.348;2022-08-19T01:02:01;98361.84;;;26.15;63.99
19526;BME280;9907;42.676;26.348;2022-08-19T01:04:27;98366.22;;;26.16;64.19
19526;BME280;9907;42.676;26.348;2022-08-19T01:06:52;98366.22;;;26.16;64.23
19526;BME280;9907;42.676;26.348;2022-08-19T01:09:18;98367.56;;;26.14;64.06
19526;BME280;9907;42.676;26.348;2022-08-19T01:11:44;98367.81;;;26.12;64.47
19526;BME280;9907;42.676;26.348;2022-08-19T01:14:10;98368.91;;;26.11;64.18
19526;BME280;9907;42.676;26.348;2022-08-19T01:16:38;98367.22;;;26.10;64.28
19526;BME280;9907;42.676;26.348;2022-08-19T01:19:18;98365.00;;;26.07;64.25
19526;BME280;9907;42.676;26.348;2022-08-19T01:21:53;98369.88;;;26.05;65.20
19526;BME280;9907;42.676;26.348;2022-08-19T01:24:20;98369.09;;;25.88;66.75
19526;BME280;9907;42.676;26.348;2022-08-19T01:26:47;98368.28;;;25.88;68.53
19526;BME280;9907;42.676;26.348;2022-08-19T01:29:12;98370.25;;;25.92;68.48
19526;BME280;9907;42.676;26.348;2022-08-19T01:31:39;98376.88;;;25.96;68.69
19526;BME280;9907;42.676;26.348;2022-08-19T01:34:06;98374.72;;;25.98;68.88
19526;BME280;9907;42.676;26.348;2022-08-19T01:36:43;98375.31;;;26.00;69.23
19526;BME280;9907;42.676;26.348;2022-08-19T01:39:23;98370.91;;;25.99;69.13
19526;BME280;9907;42.676;26.348;2022-08-19T01:41:50;98382.09;;;25.98;69.63
19526;BME280;9907;42.676;26.348;2022-08-19T01:44:19;98375.00;;;25.97;69.43
19526;BME280;9907;42.676;26.348;2022-08-19T01:46:50;98374.16;;;25.96;69.69
19526;BME280;9907;42.676;26.348;2022-08-19T01:49:18;98366.19;;;25.95;69.66
19526;BME280;9907;42.676;26.348;2022-08-19T01:51:44;98374.66;;;25.93;69.52
19526;BME280;9907;42.676;26.348;2022-08-19T01:54:10;98367.75;;;25.91;69.39
19526;BME280;9907;42.676;26.348;2022-08-19T01:56:37;98364.47;;;25.89;69.96
19526;BME280;9907;42.676;26.348;2022-08-19T01:59:08;98360.34;;;25.86;70.29
19526;BME280;9907;42.676;26.348;2022-08-19T02:01:34;98364.38;;;25.84;70.78
19526;BME280;9907;42.676;26.348;2022-08-19T02:04:00;98361.09;;;25.82;70.65
19526;BME280;9907;42.676;26.348;2022-08-19T02:06:26;98362.44;;;25.79;70.71
19526;BME280;9907;42.676;26.348;2022-08-19T02:08:52;98359.09;;;25.77;70.17
19526;BME280;9907;42.676;26.348;2022-08-19T02:11:27;98363.16;;;25.75;70.90
19526;BME280;9907;42.676;26.348;2022-08-19T02:13:54;98361.75;;;25.72;70.87
19526;BME280;9907;42.676;26.348;2022-08-19T02:16:19;98361.19;;;25.70;71.97
19526;BME280;9907;42.676;26.348;2022-08-19T02:18:46;98361.41;;;25.68;71.20
19526;BME280;9907;42.676;26.348;2022-08-19T02:21:14;98359.78;;;25.67;71.54
19526;BME280;9907;42.676;26.348;2022-08-19T02:23:41;98364.66;;;25.65;70.86
19526;BME280;9907;42.676;26.348;2022-08-19T02:26:07;98366.56;;;25.65;71.68
19526;BME280;9907;42.676;26.348;2022-08-19T02:28:32;98373.97;;;25.64;71.65
19526;BME280;9907;42.676;26.348;2022-08-19T02:30:59;98373.97;;;25.64;70.94
19526;BME280;9907;42.676;26.348;2022-08-19T02:33:26;98379.06;;;25.61;70.88
19526;BME280;9907;42.676;26.348;2022-08-19T02:35:51;98374.13;;;25.58;70.98
19526;BME280;9907;42.676;26.348;2022-08-19T02:38:17;98374.63;;;25.55;70.54
19526;BME280;9907;42.676;26.348;2022-08-19T02:40:57;98378.56;;;25.47;70.71
19526;BME280;9907;42.676;26.348;2022-08-19T02:43:24;98378.56;;;25.47;70.43
19526;BME280;9907;42.676;26.348;2022-08-19T02:45:51;98380.47;;;25.47;69.89
19526;BME280;9907;42.676;26.348;2022-08-19T02:48:22;98380.72;;;25.45;69.54
19526;BME280;9907;42.676;26.348;2022-08-19T02:50:50;98391.06;;;25.43;69.36
19526;BME280;9907;42.676;26.348;2022-08-19T02:53:18;98383.38;;;25.40;69.11
19526;BME280;9907;42.676;26.348;2022-08-19T02:55:46;98390.16;;;25.38;69.85
19526;BME280;9907;42.676;26.348;2022-08-19T02:58:13;98397.28;;;25.39;68.96
19526;BME280;9907;42.676;26.348;2022-08-19T03:00:48;98391.91;;;25.27;70.42
19526;BME280;9907;42.676;26.348;2022-08-19T03:03:15;98412.34;;;25.25;71.20
19526;BME280;9907;42.676;26.348;2022-08-19T03:05:41;98407.19;;;25.28;71.70
19526;BME280;9907;42.676;26.348;2022-08-19T03:08:08;98410.53;;;25.30;72.07
19526;BME280;9907;42.676;26.348;2022-08-19T03:10:46;98415.75;;;25.32;72.51
19526;BME280;9907;42.676;26.348;2022-08-19T03:13:17;98418.47;;;25.32;72.50
19526;BME280;9907;42.676;26.348;2022-08-19T03:15:45;98412.19;;;25.31;72.34
19526;BME280;9907;42.676;26.348;2022-08-19T03:18:12;98426.94;;;25.30;72.86
19526;BME280;9907;42.676;26.348;2022-08-19T03:20:45;98426.09;;;25.30;72.82
19526;BME280;9907;42.676;26.348;2022-08-19T03:23:11;98429.06;;;25.28;73.61
19526;BME280;9907;42.676;26.348;2022-08-19T03:25:42;98428.50;;;25.26;74.28
19526;BME280;9907;42.676;26.348;2022-08-19T03:28:10;98423.03;;;25.26;73.94
19526;BME280;9907;42.676;26.348;2022-08-19T03:30:37;98423.28;;;25.25;74.05
19526;BME280;9907;42.676;26.348;2022-08-19T03:33:02;98425.44;;;25.23;74.05
19526;BME280;9907;42.676;26.348;2022-08-19T03:35:28;98430.06;;;25.22;74.75
19526;BME280;9907;42.676;26.348;2022-08-19T03:37:53;98429.22;;;25.22;74.88
19526;BME280;9907;42.676;26.348;2022-08-19T03:40:19;98433.03;;;25.20;75.84
19526;BME280;9907;42.676;26.348;2022-08-19T03:42:45;98431.97;;;25.22;75.13
19526;BME280;9907;42.676;26.348;2022-08-19T03:45:11;98433.88;;;25.21;74.53
19526;BME280;9907;42.676;26.348;2022-08-19T03:47:37;98430.31;;;25.20;74.20
19526;BME280;9907;42.676;26.348;2022-08-19T03:50:03;98429.50;;;25.20;75.58
19526;BME280;9907;42.676;26.348;2022-08-19T03:52:29;98445.06;;;25.19;74.75
19526;BME280;9907;42.676;26.348;2022-08-19T03:54:54;98442.31;;;25.19;74.70
19526;BME280;9907;42.676;26.348;2022-08-19T03:57:20;98442.91;;;25.22;75.08
19526;BME280;9907;42.676;26.348;2022-08-19T03:59:45;98438.50;;;25.20;75.62
19526;BME280;9907;42.676;26.348;2022-08-19T04:02:12;98447.28;;;25.23;75.16
19526;BME280;9907;42.676;26.348;2022-08-19T04:04:39;98449.63;;;25.02;78.47
19526;BME280;9907;42.676;26.348;2022-08-19T04:07:05;98441.78;;;25.06;77.19
19526;BME280;9907;42.676;26.348;2022-08-19T04:09:33;98443.78;;;25.10;77.25
19526;BME280;9907;42.676;26.348;2022-08-19T04:11:59;98446.63;;;25.15;76.79
19526;BME280;9907;42.676;26.348;2022-08-19T04:14:29;98447.78;;;25.19;75.82
19526;BME280;9907;42.676;26.348;2022-08-19T04:17:00;98450.88;;;25.23;75.48
19526;BME280;9907;42.676;26.348;2022-08-19T04:19:26;98452.28;;;25.26;74.38
19526;BME280;9907;42.676;26.348;2022-08-19T04:21:53;98455.09;;;25.31;74.56
19526;BME280;9907;42.676;26.348;2022-08-19T04:24:20;98448.16;;;25.40;74.62
19526;BME280;9907;42.676;26.348;2022-08-19T04:26:47;98449.22;;;25.39;77.39
19526;BME280;9907;42.676;26.348;2022-08-19T04:29:17;98454.44;;;25.40;77.84
19526;BME280;9907;42.676;26.348;2022-08-19T04:31:44;98445.22;;;25.58;77.19
19526;BME280;9907;42.676;26.348;2022-08-19T04:34:12;98449.34;;;25.77;75.51
19526;BME280;9907;42.676;26.348;2022-08-19T04:36:41;98460.03;;;25.95;73.50
19526;BME280;9907;42.676;26.348;2022-08-19T04:39:09;98457.22;;;26.07;71.77
19526;BME280;9907;42.676;26.348;2022-08-19T04:41:36;98458.84;;;26.41;70.79
19526;BME280;9907;42.676;26.348;2022-08-19T04:44:20;98452.56;;;26.62;68.25
19526;BME280;9907;42.676;26.348;2022-08-19T04:46:48;98450.78;;;26.95;66.93
19526;BME280;9907;42.676;26.348;2022-08-19T04:49:15;98451.66;;;27.27;66.34
19526;BME280;9907;42.676;26.348;2022-08-19T04:51:44;98451.13;;;27.52;63.97
19526;BME280;9907;42.676;26.348;2022-08-19T04:54:10;98448.13;;;27.85;62.92
19526;BME280;9907;42.676;26.348;2022-08-19T04:56:36;98448.09;;;28.17;61.50
19526;BME280;9907;42.676;26.348;2022-08-19T04:59:02;98451.28;;;28.41;59.22
19526;BME280;9907;42.676;26.348;2022-08-19T05:01:32;98446.47;;;28.68;57.47
19526;BME280;9907;42.676;26.348;2022-08-19T05:04:00;98447.94;;;28.91;57.45
19526;BME280;9907;42.676;26.348;2022-08-19T05:06:27;98458.75;;;29.18;57.53
19526;BME280;9907;42.676;26.348;2022-08-19T05:08:53;98451.41;;;29.43;55.46
19526;BME280;9907;42.676;26.348;2022-08-19T05:11:22;98456.13;;;29.73;55.21
19526;BME280;9907;42.676;26.348;2022-08-19T05:13:49;98453.66;;;29.92;55.82
19526;BME280;9907;42.676;26.348;2022-08-19T05:16:17;98456.69;;;30.01;53.53
19526;BME280;9907;42.676;26.348;2022-08-19T05:18:43;98460.50;;;30.20;52.52
19526;BME280;9907;42.676;26.348;2022-08-19T05:21:29;98459.38;;;30.41;51.33
19526;BME280;9907;42.676;26.348;2022-08-19T05:24:14;98453.28;;;30.59;49.56
19526;BME280;9907;42.676;26.348;2022-08-19T05:26:42;98449.34;;;30.75;49.49
19526;BME280;9907;42.676;26.348;2022-08-19T05:29:09;98455.06;;;30.94;47.71
19526;BME280;9907;42.676;26.348;2022-08-19T05:31:36;98447.56;;;31.15;46.76
19526;BME280;9907;42.676;26.348;2022-08-19T05:34:02;98441.13;;;31.29;46.73
19526;BME280;9907;42.676;26.348;2022-08-19T05:36:34;98446.84;;;31.38;46.60
19526;BME280;9907;42.676;26.348;2022-08-19T05:39:01;98447.91;;;31.47;46.10
19526;BME280;9907;42.676;26.348;2022-08-19T05:41:26;98451.16;;;31.59;46.14
19526;BME280;9907;42.676;26.348;2022-08-19T05:43:57;98445.06;;;31.62;45.63
19526;BME280;9907;42.676;26.348;2022-08-19T05:46:23;98440.31;;;31.68;45.07
19526;BME280;9907;42.676;26.348;2022-08-19T05:48:49;98439.97;;;31.74;44.49
19526;BME280;9907;42.676;26.348;2022-08-19T05:51:15;98445.38;;;31.90;45.01
19526;BME280;9907;42.676;26.348;2022-08-19T05:53:41;98443.38;;;32.00;43.76
19526;BME280;9907;42.676;26.348;2022-08-19T05:56:09;98444.88;;;32.16;44.64
19526;BME280;9907;42.676;26.348;2022-08-19T05:58:36;98441.38;;;32.34;44.65
19526;BME280;9907;42.676;26.348;2022-08-19T06:01:03;98445.03;;;32.54;43.71
19526;BME280;9907;42.676;26.348;2022-08-19T06:03:32;98435.75;;;32.68;44.01
19526;BME280;9907;42.676;26.348;2022-08-19T06:05:58;98439.44;;;32.83;42.74
19526;BME280;9907;42.676;26.348;2022-08-19T06:08:25;98442.69;;;32.90;43.05
19526;BME280;9907;42.676;26.348;2022-08-19T06:10:51;98437.53;;;33.02;42.41
19526;BME280;9907;42.676;26.348;2022-08-19T06:13:16;98432.94;;;33.16;42.10
19526;BME280;9907;42.676;26.348;2022-08-19T06:15:45;98433.84;;;33.30;42.17
19526;BME280;9907;42.676;26.348;2022-08-19T06:18:14;98433.63;;;33.45;41.78
19526;BME280;9907;42.676;26.348;2022-08-19T06:20:41;98433.69;;;33.59;41.55
19526;BME280;9907;42.676;26.348;2022-08-19T06:23:07;98434.59;;;33.73;41.26
19526;BME280;9907;42.676;26.348;2022-08-19T06:25:34;98433.53;;;33.88;40.46
19526;BME280;9907;42.676;26.348;2022-08-19T06:27:59;98443.72;;;34.06;40.50
19526;BME280;9907;42.676;26.348;2022-08-19T06:30:26;98439.41;;;34.32;40.40
19526;BME280;9907;42.676;26.348;2022-08-19T06:32:51;98424.94;;;34.62;40.09
19526;BME280;9907;42.676;26.348;2022-08-19T06:35:17;98431.84;;;34.92;39.42
19526;BME280;9907;42.676;26.348;2022-08-19T06:37:43;98430.06;;;35.10;38.97
19526;BME280;9907;42.676;26.348;2022-08-19T06:40:10;98430.78;;;35.15;39.34
19526;BME280;9907;42.676;26.348;2022-08-19T06:42:38;98432.97;;;35.41;39.00
19526;BME280;9907;42.676;26.348;2022-08-19T06:45:04;98428.47;;;35.67;37.55
19526;BME280;9907;42.676;26.348;2022-08-19T06:47:30;98423.94;;;35.71;37.08
19526;BME280;9907;42.676;26.348;2022-08-19T06:49:58;98419.69;;;35.74;37.05
19526;BME280;9907;42.676;26.348;2022-08-19T06:52:34;98413.91;;;35.84;37.35
19526;BME280;9907;42.676;26.348;2022-08-19T06:55:01;98420.84;;;35.95;37.13
19526;BME280;9907;42.676;26.348;2022-08-19T06:57:27;98415.28;;;36.17;36.99
19526;BME280;9907;42.676;26.348;2022-08-19T06:59:56;98416.50;;;36.33;35.74
19526;BME280;9907;42.676;26.348;2022-08-19T07:02:22;98420.09;;;36.65;35.36
19526;BME280;9907;42.676;26.348;2022-08-19T07:04:51;98422.28;;;36.85;34.59
19526;BME280;9907;42.676;26.348;2022-08-19T07:07:19;98426.47;;;37.13;34.61
19526;BME280;9907;42.676;26.348;2022-08-19T07:09:46;98428.47;;;37.38;33.75
19526;BME280;9907;42.676;26.348;2022-08-19T07:12:13;98418.63;;;37.67;33.40
19526;BME280;9907;42.676;26.348;2022-08-19T07:14:41;98424.66;;;38.12;32.56
19526;BME280;9907;42.676;26.348;2022-08-19T07:17:11;98424.75;;;38.32;32.14
19526;BME280;9907;42.676;26.348;2022-08-19T07:19:37;98429.69;;;38.35;31.37
19526;BME280;9907;42.676;26.348;2022-08-19T07:22:05;98424.50;;;38.63;30.99
19526;BME280;9907;42.676;26.348;2022-08-19T07:24:39;98432.31;;;38.87;30.53
19526;BME280;9907;42.676;26.348;2022-08-19T07:27:05;98421.81;;;39.55;29.68
19526;BME280;9907;42.676;26.348;2022-08-19T07:29:33;98422.69;;;40.21;28.95
19526;BME280;9907;42.676;26.348;2022-08-19T07:32:01;98425.59;;;40.57;29.19
19526;BME280;9907;42.676;26.348;2022-08-19T07:34:29;98426.56;;;40.28;28.64
19526;BME280;9907;42.676;26.348;2022-08-19T07:36:55;98426.59;;;40.08;28.36
19526;BME280;9907;42.676;26.348;2022-08-19T07:39:30;98427.75;;;40.07;28.19
19526;BME280;9907;42.676;26.348;2022-08-19T07:41:58;98437.19;;;40.02;28.95
19526;BME280;9907;42.676;26.348;2022-08-19T07:44:24;98429.31;;;39.63;28.88
19526;BME280;9907;42.676;26.348;2022-08-19T07:46:53;98438.81;;;39.50;29.17
19526;BME280;9907;42.676;26.348;2022-08-19T07:49:21;98425.63;;;40.36;28.53
19526;BME280;9907;42.676;26.348;2022-08-19T07:51:51;98423.63;;;40.25;28.14
19526;BME280;9907;42.676;26.348;2022-08-19T07:54:18;98421.84;;;39.75;28.63
19526;BME280;9907;42.676;26.348;2022-08-19T07:56:45;98436.00;;;39.50;28.72
19526;BME280;9907;42.676;26.348;2022-08-19T07:59:10;98430.59;;;39.24;28.90
19526;BME280;9907;42.676;26.348;2022-08-19T08:01:37;98426.19;;;39.14;28.66
19526;BME280;9907;42.676;26.348;2022-08-19T08:04:06;98417.38;;;38.74;29.10
19526;BME280;9907;42.676;26.348;2022-08-19T08:06:50;98424.47;;;38.72;29.24
19526;BME280;9907;42.676;26.348;2022-08-19T08:09:37;98412.09;;;38.52;29.19
19526;BME280;9907;42.676;26.348;2022-08-19T08:14:53;98405.53;;;38.77;28.78
19526;BME280;9907;42.676;26.348;2022-08-19T08:17:21;98413.22;;;38.51;28.26
19526;BME280;9907;42.676;26.348;2022-08-19T08:19:47;98403.56;;;38.86;28.22
19526;BME280;9907;42.676;26.348;2022-08-19T08:22:15;98422.16;;;38.74;28.57
19526;BME280;9907;42.676;26.348;2022-08-19T08:25:05;98398.31;;;38.85;28.45
19526;BME280;9907;42.676;26.348;2022-08-19T08:27:35;98402.31;;;39.25;28.35
19526;BME280;9907;42.676;26.348;2022-08-19T08:30:02;98401.47;;;39.54;28.18
19526;BME280;9907;42.676;26.348;2022-08-19T08:32:29;98408.47;;;39.60;28.45
19526;BME280;9907;42.676;26.348;2022-08-19T08:34:55;98408.84;;;39.92;27.76
19526;BME280;9907;42.676;26.348;2022-08-19T08:37:21;98410.66;;;39.75;27.76
19526;BME280;9907;42.676;26.348;2022-08-19T08:39:47;98409.25;;;40.02;27.62
19526;BME280;9907;42.676;26.348;2022-08-19T08:44:56;98400.72;;;40.31;26.95
19526;BME280;9907;42.676;26.348;2022-08-19T08:47:25;98400.16;;;40.50;27.06
19526;BME280;9907;42.676;26.348;2022-08-19T08:49:55;98385.81;;;40.64;27.04
19526;BME280;9907;42.676;26.348;2022-08-19T08:52:28;98407.50;;;40.67;27.44
19526;BME280;9907;42.676;26.348;2022-08-19T08:54:55;98400.88;;;40.59;27.78
19526;BME280;9907;42.676;26.348;2022-08-19T08:57:35;98390.38;;;40.11;28.26
19526;BME280;9907;42.676;26.348;2022-08-19T09:00:05;98391.25;;;40.24;28.20
19526;BME280;9907;42.676;26.348;2022-08-19T09:02:33;98393.81;;;40.41;27.77
19526;BME280;9907;42.676;26.348;2022-08-19T09:04:59;98389.63;;;40.35;27.49
19526;BME280;9907;42.676;26.348;2022-08-19T09:07:45;98376.56;;;40.27;27.71
19526;BME280;9907;42.676;26.348;2022-08-19T09:13:12;98382.16;;;40.27;28.09
19526;BME280;9907;42.676;26.348;2022-08-19T09:15:45;98382.31;;;40.67;28.12
19526;BME280;9907;42.676;26.348;2022-08-19T09:18:14;98382.38;;;40.22;27.77
19526;BME280;9907;42.676;26.348;2022-08-19T09:20:41;98398.22;;;38.73;28.87
19526;BME280;9907;42.676;26.348;2022-08-19T09:23:07;98391.75;;;37.71;30.74
19526;BME280;9907;42.676;26.348;2022-08-19T09:25:33;98389.13;;;37.05;30.96
19526;BME280;9907;42.676;26.348;2022-08-19T09:28:00;98387.28;;;36.53;31.78
19526;BME280;9907;42.676;26.348;2022-08-19T09:30:30;98391.78;;;36.01;32.33
19526;BME280;9907;42.676;26.348;2022-08-19T09:32:56;98391.88;;;35.65;32.54
19526;BME280;9907;42.676;26.348;2022-08-19T09:35:24;98387.66;;;35.32;32.86
19526;BME280;9907;42.676;26.348;2022-08-19T09:37:50;98384.88;;;34.96;32.65
19526;BME280;9907;42.676;26.348;2022-08-19T09:40:17;98386.13;;;34.76;33.92
19526;BME280;9907;42.676;26.348;2022-08-19T09:42:43;98386.22;;;34.44;34.31
19526;BME280;9907;42.676;26.348;2022-08-19T09:45:10;98387.44;;;34.24;34.39
19526;BME280;9907;42.676;26.348;2022-08-19T09:47:36;98379.69;;;34.07;35.16
19526;BME280;9907;42.676;26.348;2022-08-19T09:50:05;98378.63;;;33.90;35.56
19526;BME280;9907;42.676;26.348;2022-08-19T09:52:32;98376.94;;;33.75;35.37
19526;BME280;9907;42.676;26.348;2022-08-19T09:54:57;98381.38;;;33.57;36.02
19526;BME280;9907;42.676;26.348;2022-08-19T09:57:23;98382.06;;;33.49;36.25
19526;BME280;9907;42.676;26.348;2022-08-19T09:59:48;98383.34;;;33.38;35.87
19526;BME280;9907;42.676;26.348;2022-08-19T10:02:14;98376.78;;;33.34;35.49
19526;BME280;9907;42.676;26.348;2022-08-19T10:04:39;98375.00;;;33.24;35.69
19526;BME280;9907;42.676;26.348;2022-08-19T10:07:23;98381.75;;;33.18;35.83
19526;BME280;9907;42.676;26.348;2022-08-19T10:09:49;98395.66;;;33.08;35.62
19526;BME280;9907;42.676;26.348;2022-08-19T10:12:15;98390.50;;;33.02;35.96
19526;BME280;9907;42.676;26.348;2022-08-19T10:14:41;98385.59;;;32.99;36.37
19526;BME280;9907;42.676;26.348;2022-08-19T10:17:07;98376.69;;;33.02;35.93
19526;BME280;9907;42.676;26.348;2022-08-19T10:19:33;98381.09;;;33.03;36.68
19526;BME280;9907;42.676;26.348;2022-08-19T10:22:05;98384.97;;;33.02;36.61
19526;BME280;9907;42.676;26.348;2022-08-19T10:24:31;98381.09;;;33.03;36.35
19526;BME280;9907;42.676;26.348;2022-08-19T10:26:57;98387.16;;;33.05;36.76
19526;BME280;9907;42.676;26.348;2022-08-19T10:29:23;98369.72;;;33.04;36.16
19526;BME280;9907;42.676;26.348;2022-08-19T10:31:48;98372.69;;;33.13;36.25
19526;BME280;9907;42.676;26.348;2022-08-19T10:34:14;98362.44;;;33.13;36.40
19526;BME280;9907;42.676;26.348;2022-08-19T10:36:39;98375.47;;;33.08;36.90
19526;BME280;9907;42.676;26.348;2022-08-19T10:39:07;98372.50;;;33.04;37.06
19526;BME280;9907;42.676;26.348;2022-08-19T10:41:35;98376.19;;;33.00;36.53
19526;BME280;9907;42.676;26.348;2022-08-19T10:44:08;98374.91;;;32.92;37.06
19526;BME280;9907;42.676;26.348;2022-08-19T10:46:37;98371.00;;;32.93;36.95
19526;BME280;9907;42.676;26.348;2022-08-19T10:49:04;98377.91;;;32.96;36.81
19526;BME280;9907;42.676;26.348;2022-08-19T10:51:31;98377.91;;;32.96;36.97
19526;BME280;9907;42.676;26.348;2022-08-19T10:54:15;98364.06;;;32.96;36.75
19526;BME280;9907;42.676;26.348;2022-08-19T10:56:41;98366.28;;;32.94;36.48
19526;BME280;9907;42.676;26.348;2022-08-19T10:59:27;98360.53;;;32.90;36.90
19526;BME280;9907;42.676;26.348;2022-08-19T11:01:58;98361.34;;;32.91;37.12
19526;BME280;9907;42.676;26.348;2022-08-19T11:04:24;98361.91;;;32.93;36.52
19526;BME280;9907;42.676;26.348;2022-08-19T11:06:49;98360.53;;;32.90;37.09
19526;BME280;9907;42.676;26.348;2022-08-19T11:09:17;98359.19;;;32.88;36.92
19526;BME280;9907;42.676;26.348;2022-08-19T11:11:44;98362.84;;;32.83;37.11
19526;BME280;9907;42.676;26.348;2022-08-19T11:14:13;98360.09;;;32.83;37.36
19526;BME280;9907;42.676;26.348;2022-08-19T11:16:40;98351.28;;;32.81;37.10
19526;BME280;9907;42.676;26.348;2022-08-19T11:19:07;98351.28;;;32.81;36.92
19526;BME280;9907;42.676;26.348;2022-08-19T11:21:42;98341.59;;;32.78;37.07
19526;BME280;9907;42.676;26.348;2022-08-19T11:24:15;98350.22;;;32.77;37.35
19526;BME280;9907;42.676;26.348;2022-08-19T11:26:43;98347.13;;;32.78;37.21
19526;BME280;9907;42.676;26.348;2022-08-19T11:29:10;98347.47;;;32.77;37.55
19526;BME280;9907;42.676;26.348;2022-08-19T11:31:39;98354.94;;;32.76;37.94
19526;BME280;9907;42.676;26.348;2022-08-19T11:34:08;98354.09;;;32.76;37.56
19526;BME280;9907;42.676;26.348;2022-08-19T11:36:37;98344.97;;;32.75;37.48
19526;BME280;9907;42.676;26.348;2022-08-19T11:39:05;98363.22;;;32.76;37.37
19526;BME280;9907;42.676;26.348;2022-08-19T11:41:31;98350.81;;;32.74;37.65
19526;BME280;9907;42.676;26.348;2022-08-19T11:43:56;98337.88;;;32.69;38.01
19526;BME280;9907;42.676;26.348;2022-08-19T11:46:24;98340.72;;;32.64;37.93
19526;BME280;9907;42.676;26.348;2022-08-19T11:48:51;98343.81;;;32.58;38.37
19526;BME280;9907;42.676;26.348;2022-08-19T11:51:20;98339.16;;;32.53;38.43
19526;BME280;9907;42.676;26.348;2022-08-19T11:53:47;98341.94;;;32.53;38.41
19526;BME280;9907;42.676;26.348;2022-08-19T11:56:12;98330.97;;;32.48;38.24
19526;BME280;9907;42.676;26.348;2022-08-19T11:58:38;98329.91;;;32.44;38.18
19526;BME280;9907;42.676;26.348;2022-08-19T12:01:06;98331.28;;;32.42;37.75
19526;BME280;9907;42.676;26.348;2022-08-19T12:03:32;98332.72;;;32.39;38.45
19526;BME280;9907;42.676;26.348;2022-08-19T12:06:03;98316.13;;;32.39;38.82
19526;BME280;9907;42.676;26.348;2022-08-19T12:08:28;98318.25;;;32.47;38.50
19526;BME280;9907;42.676;26.348;2022-08-19T12:10:54;98327.66;;;32.46;38.49
19526;BME280;9907;42.676;26.348;2022-08-19T12:13:19;98333.47;;;32.45;38.56
19526;BME280;9907;42.676;26.348;2022-08-19T12:15:46;98327.13;;;32.44;38.31
19526;BME280;9907;42.676;26.348;2022-08-19T12:18:12;98334.38;;;32.40;38.41
19526;BME280;9907;42.676;26.348;2022-08-19T12:20:40;98313.66;;;32.38;38.42
19526;BME280;9907;42.676;26.348;2022-08-19T12:23:08;98323.09;;;32.37;38.99
19526;BME280;9907;42.676;26.348;2022-08-19T12:25:43;98314.47;;;32.38;38.82
19526;BME280;9907;42.676;26.348;2022-08-19T12:28:19;98318.31;;;32.42;39.01
19526;BME280;9907;42.676;26.348;2022-08-19T12:30:47;98311.34;;;32.45;38.59
19526;BME280;9907;42.676;26.348;2022-08-19T12:33:13;98305.03;;;32.44;38.48
19526;BME280;9907;42.676;26.348;2022-08-19T12:35:43;98297.53;;;32.45;38.66
19526;BME280;9907;42.676;26.348;2022-08-19T12:38:10;98305.31;;;32.43;38.32
19526;BME280;9907;42.676;26.348;2022-08-19T12:40:35;98307.84;;;32.39;38.44
19526;BME280;9907;42.676;26.348;2022-08-19T12:43:01;98307.03;;;32.39;38.88
19526;BME280;9907;42.676;26.348;2022-08-19T12:45:27;98302.84;;;32.41;38.92
19526;BME280;9907;42.676;26.348;2022-08-19T12:47:52;98303.06;;;32.45;38.76
19526;BME280;9907;42.676;26.348;2022-08-19T12:50:18;98302.78;;;32.46;39.08
19526;BME280;9907;42.676;26.348;2022-08-19T12:52:44;98307.72;;;32.49;39.32
19526;BME280;9907;42.676;26.348;2022-08-19T12:55:10;98298.31;;;32.50;39.17
19526;BME280;9907;42.676;26.348;2022-08-19T12:57:36;98313.78;;;32.51;39.21
19526;BME280;9907;42.676;26.348;2022-08-19T13:00:15;98316.81;;;32.50;38.63
19526;BME280;9907;42.676;26.348;2022-08-19T13:02:43;98304.44;;;32.47;38.84
19526;BME280;9907;42.676;26.348;2022-08-19T13:05:14;98306.38;;;32.47;38.71
19526;BME280;9907;42.676;26.348;2022-08-19T13:07:41;98310.56;;;32.44;38.90
19526;BME280;9907;42.676;26.348;2022-08-19T13:10:10;98299.78;;;32.43;39.06
19526;BME280;9907;42.676;26.348;2022-08-19T13:12:37;98292.91;;;32.40;39.11